Time;durP1;ratioP1;P1;durP2;ratioP2;P2;SDS_P1;SDS_P2;PMS_P1;PMS_P2;Temp;Humidity;BMP_temperature;BMP_pressure;BME280_temperature;BME280_humidity;BME280_pressure;Samples;Min_cycle;Max_cycle;Signal;HPM_P1;HPM_P2
2024/03/13 00:00:47;;;;;;;0.08;0.08;;;22.30;45.30;;;;;;5008905;28;20318;-46
2024/03/13 00:03:18;;;;;;;0.10;0.10;;;22.30;45.30;;;;;;5007504;28;20192;-47
2024/03/13 00:05:50;;;;;;;0.05;0.05;;;22.30;45.30;;;;;;5008684;28;20212;-50
2024/03/13 00:08:21;;;;;;;0.00;0.00;;;22.30;45.40;;;;;;5007912;28;20209;-53
2024/03/13 00:10:52;;;;;;;0.10;0.10;;;22.30;45.40;;;;;;5009421;28;20228;-54
2024/03/13 00:13:23;;;;;;;0.10;0.10;;;22.30;45.40;;;;;;5008969;28;20232;-49
2024/03/13 00:15:57;;;;;;;0.08;0.08;;;22.30;45.40;;;;;;5010056;28;20319;-50
2024/03/13 00:18:27;;;;;;;0.00;0.00;;;22.30;45.40;;;;;;5008570;28;20200;-52
2024/03/13 00:20:58;;;;;;;0.00;0.00;;;22.30;45.40;;;;;;5008689;28;20222;-53
2024/03/13 00:23:29;;;;;;;0.10;0.10;;;22.30;45.40;;;;;;5008546;28;20627;-55
2024/03/13 00:25:59;;;;;;;0.00;0.00;;;22.30;45.40;;;;;;5008728;28;20201;-50
2024/03/13 00:28:30;;;;;;;0.00;0.00;;;22.30;45.40;;;;;;5008819;28;20209;-49
2024/03/13 00:31:03;;;;;;;0.00;0.00;;;22.40;45.50;;;;;;5007945;28;20407;-54
2024/03/13 00:33:34;;;;;;;0.00;0.00;;;22.40;45.50;;;;;;5008153;28;20311;-52
2024/03/13 00:36:04;;;;;;;0.00;0.00;;;22.40;45.40;;;;;;5008280;28;20197;-55
2024/03/13 00:38:35;;;;;;;0.00;0.00;;;22.40;45.40;;;;;;5008142;28;20196;-57
2024/03/13 00:41:06;;;;;;;0.00;0.00;;;22.40;45.40;;;;;;5008776;28;20221;-55
2024/03/13 00:43:37;;;;;;;0.00;0.00;;;22.40;45.30;;;;;;5008283;28;20735;-47
2024/03/13 00:46:09;;;;;;;0.00;0.00;;;22.50;45.40;;;;;;5008290;28;20761;-50
2024/03/13 00:48:40;;;;;;;0.00;0.00;;;22.50;45.40;;;;;;5008240;28;20220;-48
2024/03/13 00:51:10;;;;;;;0.05;0.05;;;22.50;45.30;;;;;;5007733;28;20224;-48
2024/03/13 00:53:41;;;;;;;0.08;0.08;;;22.50;45.30;;;;;;5008291;28;20533;-53
2024/03/13 00:56:12;;;;;;;0.00;0.00;;;22.50;45.30;;;;;;5008048;28;20196;-50
2024/03/13 00:58:42;;;;;;;0.00;0.00;;;22.50;45.20;;;;;;5007684;28;20292;-53
2024/03/13 01:01:17;;;;;;;0.00;0.00;;;22.50;45.20;;;;;;5007758;28;20257;-54
2024/03/13 01:03:48;;;;;;;0.00;0.00;;;22.50;45.00;;;;;;5007876;28;20200;-50
2024/03/13 01:06:20;;;;;;;0.00;0.00;;;22.60;45.00;;;;;;5008193;28;20676;-50
2024/03/13 01:08:50;;;;;;;0.00;0.00;;;22.60;45.00;;;;;;5007023;28;20192;-46
2024/03/13 01:11:22;;;;;;;0.00;0.00;;;22.60;45.10;;;;;;5006606;28;20216;-51
2024/03/13 01:13:53;;;;;;;0.00;0.00;;;22.60;45.00;;;;;;5009146;28;20769;-54
2024/03/13 01:16:25;;;;;;;0.00;0.00;;;22.60;45.00;;;;;;5014207;28;20212;-49
2024/03/13 01:18:56;;;;;;;0.00;0.00;;;22.60;45.10;;;;;;5014382;28;20541;-49
2024/03/13 01:21:27;;;;;;;0.10;0.10;;;22.60;45.00;;;;;;5014184;28;20243;-53
2024/03/13 01:23:57;;;;;;;0.10;0.10;;;22.60;45.00;;;;;;5014493;28;20205;-51
2024/03/13 01:26:34;;;;;;;0.00;0.00;;;22.60;45.00;;;;;;5011558;28;20254;-48
2024/03/13 01:29:04;;;;;;;0.10;0.10;;;22.60;45.00;;;;;;5013687;28;20210;-47
2024/03/13 01:31:37;;;;;;;0.00;0.00;;;22.70;44.90;;;;;;5014682;28;20212;-51
2024/03/13 01:34:09;;;;;;;0.00;0.00;;;22.70;44.90;;;;;;5014439;28;20798;-51
2024/03/13 01:39:27;;;;;;;0.10;0.10;;;22.70;44.90;;;;;;5014176;28;20210;-48
2024/03/13 01:56:26;;;;;;;0.00;0.00;;;22.80;44.80;;;;;;5014747;28;20271;-49
2024/03/13 01:59:09;;;;;;;0.10;0.10;;;22.70;44.70;;;;;;5014820;28;20807;-50
2024/03/13 02:04:28;;;;;;;0.00;0.00;;;22.80;44.70;;;;;;5014195;28;20212;-48
2024/03/13 02:06:59;;;;;;;0.00;0.00;;;22.80;44.60;;;;;;5014450;28;20205;-47
2024/03/13 02:09:30;;;;;;;0.10;0.10;;;22.70;44.50;;;;;;5014010;28;20284;-50
2024/03/13 02:12:00;;;;;;;0.10;0.10;;;22.80;44.60;;;;;;5014037;28;20671;-51
2024/03/13 02:14:33;;;;;;;0.00;0.00;;;22.80;44.50;;;;;;5013596;28;20228;-64
2024/03/13 02:17:03;;;;;;;0.00;0.00;;;22.80;44.10;;;;;;5041330;23;20703;-58
2024/03/13 02:19:38;;;;;;;0.00;0.00;;;22.80;42.60;;;;;;5051820;28;20234;-68
2024/03/13 02:22:09;;;;;;;0.00;0.00;;;22.70;41.40;;;;;;5014377;28;20590;-49
2024/03/13 02:24:39;;;;;;;0.00;0.00;;;22.60;40.50;;;;;;5018614;28;20227;-50
2024/03/13 02:27:12;;;;;;;0.00;0.00;;;22.60;40.60;;;;;;4993833;28;20212;-49
2024/03/13 02:29:43;;;;;;;0.10;0.10;;;22.50;41.10;;;;;;5003645;28;20205;-48
2024/03/13 02:32:13;;;;;;;0.00;0.00;;;22.50;41.50;;;;;;5031618;28;20223;-47
2024/03/13 02:34:44;;;;;;;0.00;0.00;;;22.50;41.80;;;;;;4997651;28;20330;-48
2024/03/13 02:37:14;;;;;;;0.00;0.00;;;22.50;41.90;;;;;;4997910;28;20203;-47
2024/03/13 02:39:43;;;;;;;0.00;0.00;;;22.50;42.00;;;;;;4997320;28;20201;-49
2024/03/13 02:42:13;;;;;;;0.00;0.00;;;22.50;42.10;;;;;;4997112;28;20275;-53
2024/03/13 02:44:43;;;;;;;0.00;0.00;;;22.50;42.20;;;;;;4996898;28;20204;-46
2024/03/13 02:47:13;;;;;;;0.00;0.00;;;22.50;42.20;;;;;;4996936;28;20193;-46
2024/03/13 02:49:43;;;;;;;0.10;0.10;;;22.50;42.10;;;;;;4997706;28;20199;-54
2024/03/13 02:52:12;;;;;;;0.00;0.00;;;22.50;42.10;;;;;;4996497;28;20307;-47
2024/03/13 02:54:42;;;;;;;0.10;0.10;;;22.50;41.90;;;;;;4999368;28;20236;-50
2024/03/13 02:57:14;;;;;;;0.10;0.10;;;22.60;41.90;;;;;;4996375;28;20196;-55
2024/03/13 02:59:44;;;;;;;0.10;0.10;;;22.60;41.80;;;;;;4996893;28;20217;-48
2024/03/13 03:02:14;;;;;;;0.10;0.10;;;22.60;41.80;;;;;;4996562;28;20220;-54
2024/03/13 03:04:43;;;;;;;0.00;0.00;;;22.60;41.70;;;;;;4996885;28;20695;-50
2024/03/13 03:07:13;;;;;;;0.00;0.00;;;22.60;41.60;;;;;;4996216;28;20189;-46
2024/03/13 03:09:43;;;;;;;0.00;0.00;;;22.60;41.50;;;;;;4996472;28;20240;-49
2024/03/13 03:12:12;;;;;;;0.00;0.00;;;22.60;41.50;;;;;;4996092;28;20221;-50
2024/03/13 03:14:42;;;;;;;0.10;0.10;;;22.60;41.50;;;;;;4998688;28;20221;-55
2024/03/13 03:17:11;;;;;;;0.05;0.05;;;22.60;41.60;;;;;;5000573;28;20200;-50
2024/03/13 03:19:41;;;;;;;0.00;0.00;;;22.60;42.30;;;;;;5010463;28;20200;-49
2024/03/13 03:22:11;;;;;;;0.00;0.00;;;22.60;41.60;;;;;;4999585;28;20221;-49
2024/03/13 03:24:41;;;;;;;0.00;0.00;;;22.60;41.70;;;;;;5001101;28;20200;-48
2024/03/13 03:27:11;;;;;;;0.10;0.10;;;22.60;41.80;;;;;;5011645;28;20200;-53
2024/03/13 03:29:41;;;;;;;0.10;0.10;;;22.70;41.80;;;;;;5011922;28;20663;-51
2024/03/13 03:32:09;;;;;;;0.00;0.00;;;22.60;41.80;;;;;;5015293;28;20302;-50
2024/03/13 03:34:39;;;;;;;0.05;0.05;;;22.70;42.00;;;;;;5030930;28;20285;-51
2024/03/13 03:37:09;;;;;;;0.05;0.05;;;22.70;42.00;;;;;;5023947;28;20255;-49
2024/03/13 03:39:39;;;;;;;0.00;0.00;;;22.70;42.00;;;;;;5010381;28;20197;-48
2024/03/13 03:42:09;;;;;;;0.10;0.10;;;22.70;42.00;;;;;;5011596;28;20256;-50
2024/03/13 03:44:38;;;;;;;0.00;0.00;;;22.70;41.90;;;;;;5012072;28;20625;-50
2024/03/13 03:47:10;;;;;;;0.00;0.00;;;22.70;41.90;;;;;;4992434;28;20750;-48
2024/03/13 03:49:40;;;;;;;0.10;0.10;;;22.70;41.80;;;;;;4991861;28;20551;-47
2024/03/13 03:52:10;;;;;;;0.00;0.00;;;22.70;41.80;;;;;;4992076;28;20310;-49
2024/03/13 03:54:40;;;;;;;0.00;0.00;;;22.70;41.80;;;;;;4997446;28;20700;-49
2024/03/13 03:57:10;;;;;;;0.00;0.00;;;22.70;41.80;;;;;;4991401;28;20660;-46
2024/03/13 03:59:40;;;;;;;0.10;0.10;;;22.70;41.80;;;;;;5028619;28;20199;-55
2024/03/13 04:02:10;;;;;;;0.00;0.00;;;22.70;41.90;;;;;;5030696;28;20220;-51
2024/03/13 04:04:39;;;;;;;0.00;0.00;;;22.70;41.90;;;;;;5031572;28;20199;-51
2024/03/13 04:07:10;;;;;;;0.00;0.00;;;22.70;42.00;;;;;;5030731;28;20277;-50
2024/03/13 04:09:40;;;;;;;0.10;0.10;;;22.70;42.00;;;;;;5031293;28;20195;-51
2024/03/13 04:12:09;;;;;;;0.00;0.00;;;22.70;41.90;;;;;;5030687;28;20277;-49
2024/03/13 04:14:39;;;;;;;0.00;0.00;;;22.70;42.00;;;;;;5022956;28;20969;-46
2024/03/13 04:17:09;;;;;;;0.00;0.00;;;22.70;42.00;;;;;;5008186;28;20557;-48
2024/03/13 04:19:39;;;;;;;0.05;0.05;;;22.70;42.10;;;;;;4991827;28;20205;-48
2024/03/13 04:22:09;;;;;;;0.00;0.00;;;22.70;42.10;;;;;;4991659;28;20224;-46
2024/03/13 04:24:39;;;;;;;0.00;0.00;;;22.70;42.10;;;;;;4997956;28;20207;-48
2024/03/13 04:27:08;;;;;;;0.00;0.00;;;22.70;42.00;;;;;;5022961;28;20257;-50
2024/03/13 04:29:38;;;;;;;0.00;0.00;;;22.70;42.00;;;;;;5030834;28;20691;-47
2024/03/13 04:32:08;;;;;;;0.00;0.00;;;22.70;42.00;;;;;;5000264;28;20627;-47
2024/03/13 04:34:38;;;;;;;0.00;0.00;;;22.70;42.00;;;;;;5004911;28;20665;-51
2024/03/13 04:37:08;;;;;;;0.00;0.00;;;22.70;42.10;;;;;;5004566;28;20221;-45
2024/03/13 04:39:37;;;;;;;0.00;0.00;;;22.70;42.10;;;;;;5003142;28;20192;-45
2024/03/13 04:42:07;;;;;;;0.00;0.00;;;22.70;42.10;;;;;;5000032;28;20225;-46
2024/03/13 04:44:37;;;;;;;0.00;0.00;;;22.70;42.00;;;;;;5010758;28;20207;-45
2024/03/13 04:47:07;;;;;;;0.03;0.03;;;22.70;42.10;;;;;;5010888;28;20231;-47
2024/03/13 04:49:37;;;;;;;0.00;0.00;;;22.70;42.10;;;;;;5009962;28;20844;-45
2024/03/13 04:52:06;;;;;;;0.00;0.00;;;22.60;42.00;;;;;;5012285;28;20216;-45
2024/03/13 04:54:36;;;;;;;0.10;0.10;;;22.70;42.00;;;;;;4997437;28;20224;-46
2024/03/13 04:57:06;;;;;;;0.00;0.00;;;22.60;42.00;;;;;;5010579;28;20364;-45
2024/03/13 04:59:37;;;;;;;0.10;0.10;;;22.60;42.00;;;;;;5010248;28;20664;-49
2024/03/13 05:02:07;;;;;;;0.10;0.10;;;22.60;42.00;;;;;;5010803;28;20224;-45
2024/03/13 05:04:37;;;;;;;0.00;0.00;;;22.60;42.00;;;;;;5012965;28;20587;-45
2024/03/13 05:07:08;;;;;;;0.10;0.10;;;22.60;42.10;;;;;;5010716;28;20199;-45
2024/03/13 05:09:40;;;;;;;0.00;0.00;;;22.60;42.10;;;;;;5014506;28;20204;-45
2024/03/13 05:12:10;;;;;;;0.10;0.10;;;22.60;42.10;;;;;;5014742;28;20216;-45
2024/03/13 05:14:39;;;;;;;0.00;0.00;;;22.60;42.10;;;;;;5009829;28;20220;-46
2024/03/13 05:17:15;;;;;;;0.10;0.10;;;22.60;42.10;;;;;;4994794;28;20208;-45
2024/03/13 05:19:45;;;;;;;0.00;0.00;;;22.60;42.10;;;;;;4995321;28;20192;-48
2024/03/13 05:22:15;;;;;;;0.00;0.00;;;22.60;42.00;;;;;;4993959;28;20227;-48
2024/03/13 05:24:47;;;;;;;0.08;0.08;;;22.60;42.10;;;;;;5001132;28;20603;-48
2024/03/13 05:27:16;;;;;;;0.00;0.00;;;22.60;42.10;;;;;;5014478;28;20275;-47
2024/03/13 05:29:46;;;;;;;0.00;0.00;;;22.60;42.10;;;;;;5013800;28;20707;-45
2024/03/13 05:32:16;;;;;;;0.10;0.10;;;22.60;42.00;;;;;;5013919;28;20223;-46
2024/03/13 05:34:46;;;;;;;0.00;0.00;;;22.60;42.00;;;;;;5013635;28;20228;-48
2024/03/13 05:37:16;;;;;;;0.00;0.00;;;22.60;41.90;;;;;;5013654;28;20207;-50
2024/03/13 05:39:48;;;;;;;0.10;0.10;;;22.60;41.90;;;;;;5013800;28;20246;-48
2024/03/13 05:42:18;;;;;;;0.00;0.00;;;22.60;42.00;;;;;;5014774;28;20220;-51
2024/03/13 05:44:47;;;;;;;0.05;0.05;;;22.60;41.90;;;;;;5012693;28;20710;-46
2024/03/13 05:47:17;;;;;;;0.10;0.10;;;22.60;41.90;;;;;;5011869;28;20200;-47
2024/03/13 05:49:47;;;;;;;0.03;0.03;;;22.50;41.80;;;;;;5013667;28;20539;-48
2024/03/13 05:52:16;;;;;;;0.00;0.00;;;22.50;41.70;;;;;;5013380;28;20220;-46
2024/03/13 05:54:46;;;;;;;0.00;0.00;;;22.50;41.70;;;;;;5013394;28;20224;-51
2024/03/13 05:57:15;;;;;;;0.10;0.10;;;22.50;41.80;;;;;;5013663;28;20204;-46
2024/03/13 05:59:45;;;;;;;0.10;0.10;;;22.50;42.10;;;;;;5013657;28;20224;-48
2024/03/13 06:02:15;;;;;;;0.10;0.10;;;22.50;42.40;;;;;;5015870;28;20266;-48
2024/03/13 06:04:45;;;;;;;0.10;0.10;;;22.50;41.70;;;;;;5017598;28;20585;-47
2024/03/13 06:07:15;;;;;;;0.10;0.10;;;22.50;41.70;;;;;;5018111;28;20279;-45
2024/03/13 06:09:44;;;;;;;0.00;0.00;;;22.50;41.70;;;;;;5017613;28;20656;-45
2024/03/13 06:12:14;;;;;;;0.10;0.10;;;22.50;41.70;;;;;;5017305;28;20247;-47
2024/03/13 06:14:44;;;;;;;0.00;0.00;;;22.50;41.70;;;;;;5007405;28;20231;-46
2024/03/13 06:17:14;;;;;;;0.10;0.10;;;22.50;41.70;;;;;;4997802;28;20270;-47
2024/03/13 06:19:44;;;;;;;0.00;0.00;;;22.50;41.70;;;;;;4997680;28;20193;-46
2024/03/13 06:22:13;;;;;;;0.00;0.00;;;22.50;41.70;;;;;;4997674;28;20300;-46
2024/03/13 06:24:46;;;;;;;0.03;0.03;;;22.50;41.70;;;;;;5000670;28;20212;-46
2024/03/13 06:27:16;;;;;;;0.00;0.00;;;22.50;41.70;;;;;;4997859;28;20247;-47
2024/03/13 06:29:57;;;;;;;0.00;0.00;;;22.50;41.70;;;;;;4997059;28;20201;-46
2024/03/13 06:32:28;;;;;;;0.00;0.00;;;22.40;41.60;;;;;;4998932;28;20221;-46
2024/03/13 06:34:58;;;;;;;0.00;0.00;;;22.40;41.60;;;;;;5004776;28;20259;-48
2024/03/13 06:37:28;;;;;;;0.00;0.00;;;22.40;41.60;;;;;;5016630;28;20254;-45
2024/03/13 06:39:58;;;;;;;0.00;0.00;;;22.40;41.60;;;;;;5016657;28;20192;-47
2024/03/13 06:42:28;;;;;;;0.00;0.00;;;22.40;41.60;;;;;;5016454;28;20346;-46
2024/03/13 06:44:58;;;;;;;0.10;0.10;;;22.40;41.60;;;;;;5016063;28;20192;-47
2024/03/13 06:47:27;;;;;;;0.08;0.08;;;22.40;41.60;;;;;;5013246;28;20193;-46
2024/03/13 06:49:57;;;;;;;0.10;0.10;;;22.40;41.70;;;;;;4997197;28;20205;-45
2024/03/13 06:52:28;;;;;;;0.03;0.03;;;22.40;41.70;;;;;;4997077;28;20239;-45
2024/03/13 06:54:58;;;;;;;0.10;0.10;;;22.40;41.70;;;;;;5006046;28;20632;-45
2024/03/13 06:57:27;;;;;;;0.10;0.10;;;22.40;41.70;;;;;;5016996;28;20208;-47
2024/03/13 06:59:57;;;;;;;0.00;0.00;;;22.40;41.70;;;;;;5016127;28;20265;-46
2024/03/13 07:02:28;;;;;;;0.00;0.00;;;22.40;41.70;;;;;;5016285;28;20220;-48
2024/03/13 07:04:57;;;;;;;0.10;0.10;;;22.40;41.70;;;;;;5016012;28;20207;-46
2024/03/13 07:07:27;;;;;;;0.10;0.10;;;22.40;41.70;;;;;;5016241;28;20200;-50
2024/03/13 07:09:57;;;;;;;0.00;0.00;;;22.30;41.70;;;;;;5015871;28;20195;-51
2024/03/13 07:12:26;;;;;;;0.00;0.00;;;22.40;41.70;;;;;;5012147;28;20349;-51
2024/03/13 07:14:57;;;;;;;0.10;0.10;;;22.30;41.70;;;;;;5014598;28;20219;-50
2024/03/13 07:17:27;;;;;;;0.10;0.10;;;22.30;41.70;;;;;;5015818;28;20224;-50
2024/03/13 07:19:57;;;;;;;0.00;0.00;;;22.30;41.70;;;;;;5016292;28;20204;-45
2024/03/13 07:22:27;;;;;;;0.00;0.00;;;22.30;41.80;;;;;;5015785;28;20220;-51
2024/03/13 07:24:56;;;;;;;0.00;0.00;;;22.30;41.80;;;;;;5016275;28;20231;-47
2024/03/13 07:27:26;;;;;;;0.10;0.10;;;22.30;41.80;;;;;;5015924;28;20200;-48
2024/03/13 07:29:56;;;;;;;0.10;0.10;;;22.30;41.90;;;;;;5014705;28;20204;-48
2024/03/13 07:32:25;;;;;;;0.00;0.00;;;22.30;41.90;;;;;;5015028;28;20216;-46
2024/03/13 07:34:55;;;;;;;0.00;0.00;;;22.30;42.00;;;;;;5015572;28;20597;-50
2024/03/13 07:37:25;;;;;;;0.00;0.00;;;22.30;42.00;;;;;;5015680;28;20199;-48
2024/03/13 07:39:55;;;;;;;0.00;0.00;;;22.30;42.00;;;;;;5015255;28;20238;-46
2024/03/13 07:42:25;;;;;;;0.00;0.00;;;22.30;42.00;;;;;;5015176;28;20292;-49
2024/03/13 07:44:55;;;;;;;0.08;0.08;;;22.30;41.90;;;;;;5014699;28;20228;-48
2024/03/13 07:47:25;;;;;;;0.00;0.00;;;22.30;42.00;;;;;;5015478;28;20283;-46
2024/03/13 07:49:54;;;;;;;0.10;0.10;;;22.30;41.90;;;;;;5015414;28;20591;-47
2024/03/13 07:52:24;;;;;;;0.00;0.00;;;22.30;42.00;;;;;;5014736;28;20212;-50
2024/03/13 07:54:54;;;;;;;0.00;0.00;;;22.30;42.00;;;;;;5015238;28;20458;-48
2024/03/13 07:57:24;;;;;;;0.10;0.10;;;22.30;42.00;;;;;;5014846;28;20196;-49
2024/03/13 07:59:54;;;;;;;0.10;0.10;;;22.30;42.10;;;;;;5014412;28;20197;-46
2024/03/13 08:02:23;;;;;;;0.10;0.10;;;22.20;42.00;;;;;;5015033;28;20208;-47
2024/03/13 08:04:53;;;;;;;0.10;0.10;;;22.20;42.10;;;;;;5015402;28;20208;-51
2024/03/13 08:07:26;;;;;;;0.00;0.00;;;22.20;42.00;;;;;;5014918;28;20196;-45
2024/03/13 08:09:55;;;;;;;0.10;0.10;;;22.20;42.20;;;;;;5015173;28;20287;-45
2024/03/13 08:12:25;;;;;;;0.10;0.10;;;22.20;42.20;;;;;;5007181;28;20204;-48
2024/03/13 08:14:55;;;;;;;0.00;0.00;;;22.20;42.20;;;;;;5003792;28;20739;-45
2024/03/13 08:17:25;;;;;;;0.00;0.00;;;22.30;42.30;;;;;;5003580;28;20189;-45
2024/03/13 08:19:55;;;;;;;0.00;0.00;;;22.20;42.30;;;;;;5009277;28;20192;-46
2024/03/13 08:22:24;;;;;;;0.05;0.05;;;22.20;42.30;;;;;;5006582;28;20232;-45
2024/03/13 08:24:54;;;;;;;0.05;0.05;;;22.20;42.30;;;;;;5012361;22;20290;-44
2024/03/13 08:27:24;;;;;;;0.00;0.00;;;22.20;42.30;;;;;;5008583;28;20211;-45
2024/03/13 08:29:53;;;;;;;0.00;0.00;;;22.20;42.40;;;;;;5010909;28;20207;-57
2024/03/13 08:32:23;;;;;;;0.10;0.10;;;22.20;42.40;;;;;;5006400;28;20231;-58
2024/03/13 08:34:53;;;;;;;0.05;0.05;;;22.20;42.40;;;;;;5007781;28;20197;-45
2024/03/13 08:37:23;;;;;;;0.00;0.00;;;22.20;42.50;;;;;;5006923;28;20235;-45
2024/03/13 08:39:52;;;;;;;0.00;0.00;;;22.20;42.50;;;;;;5006478;28;20200;-47
2024/03/13 08:42:23;;;;;;;0.10;0.10;;;22.20;42.50;;;;;;5006701;28;20220;-44
2024/03/13 08:44:52;;;;;;;0.00;0.00;;;22.10;42.50;;;;;;5006183;28;20251;-45
2024/03/13 08:47:22;;;;;;;0.00;0.00;;;22.10;42.50;;;;;;5007041;28;20278;-43
2024/03/13 08:49:52;;;;;;;0.00;0.00;;;22.10;42.50;;;;;;4997427;28;20251;-42
2024/03/13 08:52:21;;;;;;;0.00;0.00;;;22.10;42.50;;;;;;5006337;28;20739;-49
2024/03/13 08:54:52;;;;;;;0.00;0.00;;;22.10;42.50;;;;;;5006615;28;20204;-42
2024/03/13 08:57:22;;;;;;;0.10;0.10;;;22.10;42.50;;;;;;5005445;28;20282;-40
2024/03/13 08:59:51;;;;;;;0.10;0.10;;;22.10;42.50;;;;;;5007829;28;20216;-42
2024/03/13 09:02:21;;;;;;;0.10;0.10;;;22.10;42.50;;;;;;5006216;28;20239;-41
2024/03/13 09:04:51;;;;;;;0.00;0.00;;;22.10;42.70;;;;;;5007017;28;20201;-39
2024/03/13 09:07:21;;;;;;;0.10;0.10;;;22.10;42.50;;;;;;5003726;28;20200;-42
2024/03/13 09:09:51;;;;;;;0.00;0.00;;;22.10;42.60;;;;;;5006705;28;20204;-41
2024/03/13 09:12:20;;;;;;;0.00;0.00;;;22.00;42.50;;;;;;5002047;28;20224;-40
2024/03/13 09:14:50;;;;;;;0.10;0.10;;;22.10;42.60;;;;;;5001673;28;20200;-40
2024/03/13 09:17:20;;;;;;;0.10;0.10;;;22.00;42.50;;;;;;5006301;28;20715;-46
2024/03/13 09:19:51;;;;;;;0.10;0.10;;;22.00;42.50;;;;;;5005158;28;20569;-42
2024/03/13 09:22:22;;;;;;;0.10;0.10;;;22.00;42.50;;;;;;5006433;28;20235;-47
2024/03/13 09:24:51;;;;;;;0.05;0.05;;;22.00;42.60;;;;;;5018405;23;20214;-50
2024/03/13 09:27:21;;;;;;;0.10;0.10;;;22.00;42.60;;;;;;5010781;28;20206;-50
2024/03/13 09:29:51;;;;;;;0.00;0.00;;;22.00;42.70;;;;;;5009940;28;20231;-46
2024/03/13 09:32:22;;;;;;;0.00;0.00;;;21.90;42.60;;;;;;5006292;28;20224;-50
2024/03/13 09:34:52;;;;;;;0.00;0.00;;;21.90;42.70;;;;;;5006662;28;20196;-48
2024/03/13 09:37:21;;;;;;;0.00;0.00;;;21.90;42.60;;;;;;5009540;28;20311;-55
2024/03/13 09:39:52;;;;;;;0.10;0.10;;;21.90;42.70;;;;;;5029492;28;20196;-54
2024/03/13 09:42:22;;;;;;;0.00;0.00;;;21.90;42.70;;;;;;5011301;28;20605;-51
2024/03/13 09:44:52;;;;;;;0.00;0.00;;;21.90;42.70;;;;;;5025349;28;20211;-50
2024/03/13 09:47:22;;;;;;;0.00;0.00;;;21.90;42.70;;;;;;5010414;28;20550;-51
2024/03/13 09:49:51;;;;;;;0.00;0.00;;;21.90;42.70;;;;;;5007408;28;20493;-53
2024/03/13 09:52:21;;;;;;;0.03;0.03;;;21.80;42.70;;;;;;5009801;28;20227;-48
2024/03/13 09:54:51;;;;;;;0.00;0.00;;;21.80;42.70;;;;;;5009025;28;20204;-50
2024/03/13 09:57:21;;;;;;;0.03;0.03;;;21.90;42.80;;;;;;5009053;28;20228;-54
2024/03/13 09:59:52;;;;;;;0.00;0.00;;;21.80;42.70;;;;;;4993487;28;20287;-50
2024/03/13 10:02:22;;;;;;;0.00;0.00;;;21.80;42.70;;;;;;4993777;28;20252;-54
2024/03/13 10:04:51;;;;;;;0.00;0.00;;;21.80;42.70;;;;;;5009947;28;20200;-57
2024/03/13 10:07:21;;;;;;;0.03;0.03;;;21.80;42.70;;;;;;5010111;28;20267;-51
2024/03/13 10:09:51;;;;;;;0.10;0.10;;;21.80;42.70;;;;;;5010015;28;20204;-49
2024/03/13 10:12:21;;;;;;;0.10;0.10;;;21.80;42.70;;;;;;4993635;28;20211;-49
2024/03/13 10:14:51;;;;;;;0.00;0.00;;;21.80;42.70;;;;;;5010180;28;20193;-47
2024/03/13 10:17:21;;;;;;;0.10;0.10;;;21.70;42.70;;;;;;5008692;28;20323;-52
2024/03/13 10:19:51;;;;;;;0.10;0.10;;;21.70;42.80;;;;;;5009260;28;20562;-49
2024/03/13 10:22:21;;;;;;;0.00;0.00;;;21.70;42.80;;;;;;5008728;28;20225;-56
2024/03/13 10:24:51;;;;;;;0.10;0.10;;;21.70;42.80;;;;;;5009215;28;20283;-50
2024/03/13 10:27:22;;;;;;;0.10;0.10;;;21.70;42.80;;;;;;5009644;28;20223;-52
2024/03/13 10:29:53;;;;;;;0.10;0.10;;;21.70;42.80;;;;;;5009238;28;20200;-46
2024/03/13 10:32:22;;;;;;;0.10;0.10;;;21.70;42.90;;;;;;5009523;28;20213;-50
2024/03/13 10:34:52;;;;;;;0.10;0.10;;;21.70;42.90;;;;;;5009761;28;20287;-56
2024/03/13 10:37:22;;;;;;;0.00;0.00;;;21.60;42.80;;;;;;5008753;28;20233;-47
2024/03/13 10:39:51;;;;;;;0.10;0.10;;;21.60;42.80;;;;;;4993501;28;20302;-50
2024/03/13 10:42:21;;;;;;;0.00;0.00;;;21.60;42.80;;;;;;4995135;28;20231;-57
2024/03/13 10:44:51;;;;;;;0.10;0.10;;;21.60;42.90;;;;;;4995688;28;20200;-51
2024/03/13 10:47:21;;;;;;;0.10;0.10;;;21.60;42.80;;;;;;5011992;28;20236;-53
2024/03/13 10:49:50;;;;;;;0.10;0.10;;;21.60;42.90;;;;;;5009897;28;20201;-49
2024/03/13 10:52:21;;;;;;;0.10;0.10;;;21.60;42.90;;;;;;5012400;28;20307;-52
2024/03/13 10:54:50;;;;;;;0.00;0.00;;;21.60;42.90;;;;;;5010941;28;20586;-53
2024/03/13 10:57:20;;;;;;;0.03;0.03;;;21.60;42.90;;;;;;5012125;28;20243;-53
2024/03/13 10:59:53;;;;;;;0.10;0.10;;;21.60;42.90;;;;;;5011447;28;20189;-47
2024/03/13 11:02:23;;;;;;;0.00;0.00;;;21.50;42.90;;;;;;5011279;28;20213;-50
2024/03/13 11:04:52;;;;;;;0.00;0.00;;;21.50;42.90;;;;;;5011120;28;20192;-57
2024/03/13 11:07:22;;;;;;;0.10;0.10;;;21.50;42.90;;;;;;5011838;28;20668;-48
2024/03/13 11:09:51;;;;;;;0.03;0.03;;;21.50;42.90;;;;;;5011862;28;20189;-51
2024/03/13 11:12:21;;;;;;;0.00;0.00;;;21.50;42.90;;;;;;5012020;28;20205;-53
2024/03/13 11:14:51;;;;;;;0.00;0.00;;;21.50;42.90;;;;;;5012248;28;20251;-52
2024/03/13 11:17:21;;;;;;;0.00;0.00;;;21.50;42.90;;;;;;5011467;28;20222;-47
2024/03/13 11:19:51;;;;;;;0.00;0.00;;;21.50;43.00;;;;;;5011499;28;20184;-55
2024/03/13 11:22:21;;;;;;;0.03;0.03;;;21.40;42.90;;;;;;5011778;28;20263;-51
2024/03/13 11:24:51;;;;;;;0.00;0.00;;;21.40;43.00;;;;;;5012635;28;20189;-54
2024/03/13 11:27:20;;;;;;;0.00;0.00;;;21.40;42.90;;;;;;5012048;28;20208;-53
2024/03/13 11:29:50;;;;;;;0.10;0.10;;;21.40;43.00;;;;;;5012202;28;20204;-52
2024/03/13 11:32:20;;;;;;;0.10;0.10;;;21.40;43.00;;;;;;5011569;28;20204;-52
2024/03/13 11:34:50;;;;;;;0.08;0.08;;;21.40;43.00;;;;;;5008956;28;20657;-59
2024/03/13 11:37:21;;;;;;;0.00;0.00;;;21.40;43.00;;;;;;5011596;28;20604;-51
2024/03/13 11:39:51;;;;;;;0.00;0.00;;;21.40;43.00;;;;;;5010143;28;20228;-49
2024/03/13 11:42:21;;;;;;;0.10;0.10;;;21.40;43.00;;;;;;5011433;28;20707;-52
2024/03/13 11:44:51;;;;;;;0.00;0.00;;;21.40;43.00;;;;;;5011892;28;20546;-51
2024/03/13 11:47:26;;;;;;;0.10;0.10;;;21.30;43.00;;;;;;5011395;28;20197;-48
2024/03/13 11:49:59;;;;;;;0.10;0.10;;;21.40;43.10;;;;;;5011299;28;20193;-52
2024/03/13 11:52:29;;;;;;;0.10;0.10;;;21.40;43.10;;;;;;5009226;28;20219;-58
2024/03/13 11:54:58;;;;;;;0.10;0.10;;;21.30;43.00;;;;;;5011140;28;20207;-50
2024/03/13 11:57:28;;;;;;;0.00;0.00;;;21.30;43.10;;;;;;5008843;28;20221;-53
2024/03/13 11:59:58;;;;;;;0.10;0.10;;;21.30;43.10;;;;;;5010114;28;20216;-51
2024/03/13 12:02:40;;;;;;;0.03;0.03;;;21.30;43.10;;;;;;5008660;28;20217;-51
2024/03/13 12:05:11;;;;;;;0.00;0.00;;;21.30;43.10;;;;;;5009000;28;20274;-52
2024/03/13 12:07:41;;;;;;;0.00;0.00;;;21.30;43.10;;;;;;5011221;28;20288;-50
2024/03/13 12:10:15;;;;;;;0.10;0.10;;;21.20;43.10;;;;;;5010996;28;20197;-52
2024/03/13 12:12:45;;;;;;;0.00;0.00;;;21.30;43.10;;;;;;5011124;28;20683;-56
2024/03/13 12:15:17;;;;;;;0.10;0.10;;;21.20;43.10;;;;;;5011222;28;20200;-52
2024/03/13 12:17:47;;;;;;;0.05;0.05;;;21.20;43.10;;;;;;5011297;28;20235;-53
2024/03/13 12:20:18;;;;;;;0.00;0.00;;;21.20;43.10;;;;;;5011230;28;20203;-51
2024/03/13 12:22:49;;;;;;;0.00;0.00;;;21.20;43.10;;;;;;5010781;28;20252;-48
2024/03/13 12:25:19;;;;;;;0.08;0.08;;;21.20;43.10;;;;;;5030050;23;20258;-46
2024/03/13 12:27:49;;;;;;;0.10;0.10;;;21.20;43.10;;;;;;5034183;28;20253;-46
2024/03/13 12:30:19;;;;;;;0.00;0.00;;;21.20;43.10;;;;;;5034174;28;20200;-44
2024/03/13 12:32:49;;;;;;;0.10;0.10;;;21.20;43.10;;;;;;5015270;28;20252;-45
2024/03/13 12:35:19;;;;;;;0.03;0.03;;;21.20;43.20;;;;;;5014377;28;20279;-44
2024/03/13 12:37:53;;;;;;;0.10;0.10;;;21.20;43.10;;;;;;5014050;28;20231;-44
2024/03/13 12:40:22;;;;;;;0.00;0.00;;;21.10;43.10;;;;;;5010489;28;20200;-45
2024/03/13 12:42:52;;;;;;;0.10;0.10;;;21.10;43.10;;;;;;5011058;28;20203;-47
2024/03/13 12:45:22;;;;;;;0.10;0.10;;;21.10;43.10;;;;;;5010679;28;20557;-43
2024/03/13 12:47:51;;;;;;;0.00;0.00;;;21.10;43.20;;;;;;5009914;28;20209;-44
2024/03/13 12:50:21;;;;;;;0.10;0.10;;;21.10;43.20;;;;;;5009387;28;20205;-43
2024/03/13 12:52:51;;;;;;;0.10;0.10;;;21.10;43.20;;;;;;5010793;28;20244;-44
2024/03/13 12:55:21;;;;;;;0.10;0.10;;;21.00;43.10;;;;;;5013947;28;20196;-45
2024/03/13 12:57:52;;;;;;;0.03;0.03;;;21.00;43.20;;;;;;5014651;28;20224;-45
2024/03/13 13:00:22;;;;;;;0.10;0.10;;;21.00;43.20;;;;;;5014347;28;20228;-48
2024/03/13 13:02:53;;;;;;;0.05;0.05;;;21.00;43.20;;;;;;5014198;28;20223;-44
2024/03/13 13:05:23;;;;;;;0.00;0.00;;;21.00;43.20;;;;;;5013294;28;20664;-46
2024/03/13 13:07:54;;;;;;;0.00;0.00;;;21.00;43.20;;;;;;5014621;28;20200;-45
2024/03/13 13:10:24;;;;;;;0.10;0.10;;;21.00;43.20;;;;;;5014363;28;20200;-48
2024/03/13 13:12:54;;;;;;;0.10;0.10;;;20.90;43.10;;;;;;5014433;28;20248;-46
2024/03/13 13:15:22;;;;;;;0.00;0.00;;;21.00;43.20;;;;;;5014283;28;20211;-45
2024/03/13 13:17:52;;;;;;;0.00;0.00;;;20.90;43.10;;;;;;5013987;28;20234;-45
2024/03/13 13:20:22;;;;;;;0.00;0.00;;;20.90;43.20;;;;;;5014128;28;20675;-45
2024/03/13 13:22:52;;;;;;;0.00;0.00;;;20.90;43.20;;;;;;5014182;28;20652;-45